createdAt,value
2019-04-14T00:02:16.374Z,32.10
2019-04-14T00:04:50.561Z,34.63
2019-04-14T00:07:23.068Z,35.40
2019-04-14T00:09:54.567Z,36.87
2019-04-14T00:12:25.926Z,34.80
2019-04-14T00:14:57.879Z,34.37
2019-04-14T00:17:29.169Z,33.73
2019-04-14T00:20:00.967Z,35.83
2019-04-14T00:22:33.639Z,37.10
2019-04-14T00:25:07.101Z,36.87
2019-04-14T00:27:38.868Z,35.47
2019-04-14T00:30:14.336Z,35.83
2019-04-14T00:32:48.694Z,35.13
2019-04-14T00:35:38.603Z,35.50
2019-04-14T00:38:15.193Z,34.77
2019-04-14T00:40:52.095Z,36.77
2019-04-14T00:43:25.135Z,32.73
2019-04-14T00:46:00.902Z,34.63
2019-04-14T00:48:32.044Z,35.97
2019-04-14T00:51:03.394Z,34.30
2019-04-14T00:53:35.930Z,36.43
2019-04-14T00:56:08.375Z,34.93
2019-04-14T00:58:39.729Z,35.67
2019-04-14T01:01:11.234Z,34.80
2019-04-14T01:03:43.568Z,35.40
2019-04-14T01:06:16.546Z,34.60
2019-04-14T01:08:48.890Z,33.87
2019-04-14T01:11:20.391Z,35.27
2019-04-14T01:13:52.887Z,34.10
2019-04-14T01:16:25.411Z,32.87
2019-04-14T01:18:58.078Z,31.77
2019-04-14T01:21:30.629Z,34.43
2019-04-14T01:24:03.106Z,35.07
2019-04-14T01:26:35.594Z,33.60
2019-04-14T01:29:08.014Z,34.20
2019-04-14T01:31:40.256Z,31.57
2019-04-14T01:34:12.908Z,34.03
2019-04-14T01:36:45.326Z,34.37
2019-04-14T01:39:17.638Z,35.07
2019-04-14T01:41:49.955Z,35.67
2019-04-14T01:44:22.120Z,36.37
2019-04-14T01:46:54.671Z,36.37
2019-04-14T01:49:26.878Z,34.50
2019-04-14T01:52:08.076Z,34.47
2019-04-14T01:54:45.324Z,35.77
2019-04-14T01:57:21.874Z,35.00
2019-04-14T01:59:54.647Z,37.30
2019-04-14T02:02:27.644Z,33.47
2019-04-14T02:04:59.636Z,34.77
2019-04-14T02:07:31.928Z,34.37
2019-04-14T02:10:03.979Z,32.83
2019-04-14T02:12:36.550Z,35.57
2019-04-14T02:15:09.332Z,34.53
2019-04-14T02:17:41.635Z,34.57
2019-04-14T02:20:14.230Z,35.60
2019-04-14T02:22:46.321Z,33.57
2019-04-14T02:25:18.760Z,35.20
2019-04-14T02:27:51.399Z,34.70
2019-04-14T02:30:30.757Z,35.27
2019-04-14T02:33:23.999Z,35.80
2019-04-14T02:36:05.740Z,36.27
2019-04-14T02:41:07.374Z,34.57
2019-04-14T02:43:37.692Z,35.17
2019-04-14T02:46:02.719Z,35.70
2019-04-14T02:51:25.670Z,34.70
2019-04-14T02:53:54.391Z,34.43
2019-04-14T02:56:25.197Z,36.07
2019-04-14T03:04:17.120Z,34.73
2019-04-14T03:09:13.871Z,35.93
2019-04-14T03:11:38.081Z,36.77
2019-04-14T03:17:07.649Z,35.90
2019-04-14T03:19:25.055Z,36.27
2019-04-14T03:22:26.805Z,36.63
2019-04-14T03:24:46.933Z,36.60
2019-04-14T03:30:54.635Z,37.73
2019-04-14T03:35:51.133Z,36.90
2019-04-14T03:38:10.326Z,35.73
2019-04-14T03:40:34.047Z,36.90
2019-04-14T03:50:48.430Z,36.00
2019-04-14T03:53:22.031Z,37.70
2019-04-14T03:55:58.847Z,36.43
2019-04-14T03:58:24.680Z,37.13
2019-04-14T04:00:55.998Z,36.70
2019-04-14T04:03:28.209Z,38.37
2019-04-14T04:06:00.675Z,40.40
2019-04-14T04:08:33.372Z,38.60
2019-04-14T04:11:06.103Z,36.67
2019-04-14T04:13:37.479Z,38.00
2019-04-14T04:16:16.160Z,38.30
2019-04-14T04:18:57.866Z,40.73
2019-04-14T04:21:29.129Z,37.90
2019-04-14T04:24:19.191Z,38.40
2019-04-14T04:26:52.202Z,39.47
2019-04-14T04:29:25.196Z,38.93
2019-04-14T04:32:01.409Z,39.20
2019-04-14T04:34:34.371Z,39.47
2019-04-14T04:37:23.514Z,37.17
2019-04-14T04:39:56.630Z,38.10
2019-04-14T04:42:28.671Z,39.13
2019-04-14T04:45:00.161Z,38.93
2019-04-14T04:47:31.648Z,39.10
2019-04-14T04:50:02.954Z,39.40
2019-04-14T04:52:34.810Z,40.60
2019-04-14T04:55:06.779Z,39.57
2019-04-14T04:57:39.467Z,40.10
2019-04-14T05:00:13.368Z,40.07
2019-04-14T05:02:45.846Z,42.03
2019-04-14T05:06:13.334Z,40.60
2019-04-14T05:08:46.359Z,39.77
2019-04-14T05:11:31.616Z,39.47
2019-04-14T05:14:04.689Z,41.47
2019-04-14T05:16:36.723Z,40.23
2019-04-14T05:19:17.199Z,40.63
2019-04-14T05:21:41.065Z,41.07
2019-04-14T05:24:13.536Z,41.83
2019-04-14T05:26:45.930Z,42.50
2019-04-14T05:29:17.364Z,39.93
2019-04-14T05:31:49.040Z,43.20
2019-04-14T05:34:21.364Z,42.70
2019-04-14T05:36:52.772Z,42.33
2019-04-14T05:39:24.337Z,40.83
2019-04-14T05:42:05.915Z,40.43
2019-04-14T05:44:29.691Z,38.17
2019-04-14T05:47:02.110Z,40.70
2019-04-14T05:49:39.078Z,39.13
2019-04-14T05:52:07.656Z,40.03
2019-04-14T05:54:40.330Z,39.47
2019-04-14T05:57:11.684Z,41.40
2019-04-14T05:59:44.072Z,41.33
2019-04-14T06:02:15.891Z,41.07
2019-04-14T06:04:48.275Z,40.50
2019-04-14T06:07:19.554Z,41.53
2019-04-14T06:09:50.920Z,41.10
2019-04-14T06:12:22.217Z,41.17
2019-04-14T06:14:55.075Z,42.97
2019-04-14T06:17:26.419Z,41.20
2019-04-14T06:19:57.826Z,39.20
2019-04-14T06:22:30.732Z,40.43
2019-04-14T06:25:02.282Z,41.87
2019-04-14T06:28:12.357Z,38.80
2019-04-14T06:31:14.752Z,40.17
2019-04-14T06:33:57.692Z,39.83
2019-04-14T06:36:42.613Z,39.53
2019-04-14T06:39:13.765Z,40.53
2019-04-14T06:41:45.148Z,40.83
2019-04-14T06:44:16.452Z,40.37
2019-04-14T06:46:47.898Z,41.33
2019-04-14T06:49:19.566Z,40.60
2019-04-14T06:51:50.885Z,40.20
2019-04-14T06:54:22.211Z,42.33
2019-04-14T06:56:55.063Z,42.47
2019-04-14T06:59:26.361Z,43.10
2019-04-14T07:01:59.254Z,41.23
2019-04-14T07:04:30.747Z,39.23
2019-04-14T07:07:02.398Z,40.23
2019-04-14T07:09:33.941Z,40.13
2019-04-14T07:12:11.155Z,40.17
2019-04-14T07:14:44.078Z,40.10
2019-04-14T07:17:18.174Z,40.13
2019-04-14T07:20:01.281Z,40.63
2019-04-14T07:22:22.424Z,38.87
2019-04-14T07:25:04.348Z,40.20
2019-04-14T07:27:35.690Z,40.00
2019-04-14T07:30:31.981Z,37.87
2019-04-14T07:33:05.105Z,39.70
2019-04-14T07:35:54.146Z,37.67
2019-04-14T07:38:41.995Z,37.47
2019-04-14T07:41:17.006Z,38.77
2019-04-14T07:43:51.280Z,38.47
2019-04-14T07:46:39.970Z,39.27
2019-04-14T07:49:24.901Z,39.00
2019-04-14T07:52:15.166Z,39.25
2019-04-14T07:54:53.152Z,39.43
2019-04-14T07:57:42.663Z,40.03
2019-04-14T08:00:26.597Z,38.60
2019-04-14T08:03:02.632Z,38.27
2019-04-14T08:05:35.863Z,37.60
2019-04-14T08:08:10.837Z,34.50
2019-04-14T08:10:42.238Z,35.10
2019-04-14T08:13:13.602Z,35.27
2019-04-14T08:15:44.921Z,34.70
2019-04-14T08:18:16.446Z,33.53
2019-04-14T08:20:47.750Z,41.30
2019-04-14T08:23:20.033Z,37.50
2019-04-14T08:25:51.857Z,35.87
2019-04-14T08:28:23.371Z,35.47
2019-04-14T08:30:54.615Z,33.13
2019-04-14T08:33:26.188Z,35.65
2019-04-14T08:35:57.613Z,38.47
2019-04-14T08:38:29.028Z,35.33
2019-04-14T08:41:00.413Z,37.20
2019-04-14T08:43:48.422Z,35.03
2019-04-14T08:46:25.064Z,33.55
2019-04-14T08:49:14.435Z,33.98
2019-04-14T08:51:54.689Z,32.83
2019-04-14T08:54:39.956Z,32.03
2019-04-14T08:57:30.943Z,34.25
2019-04-14T09:00:18.982Z,32.93
2019-04-14T09:02:51.980Z,33.38
2019-04-14T09:05:47.193Z,33.13
2019-04-14T09:08:32.202Z,31.55
2019-04-14T09:11:07.912Z,33.35
2019-04-14T09:13:39.207Z,34.03
2019-04-14T09:16:10.686Z,31.02
2019-04-14T09:18:42.165Z,31.50
2019-04-14T09:21:13.585Z,34.98
2019-04-14T09:23:47.857Z,34.03
2019-04-14T09:26:19.793Z,33.83
2019-04-14T09:28:51.289Z,34.48
2019-04-14T09:31:22.764Z,32.95
2019-04-14T09:33:56.749Z,33.33
2019-04-14T09:36:28.254Z,33.67
2019-04-14T09:38:59.526Z,32.28
2019-04-14T09:41:35.102Z,32.95
2019-04-14T09:44:06.478Z,33.45
2019-04-14T09:46:38.776Z,32.78
2019-04-14T09:49:10.243Z,32.65
2019-04-14T09:51:44.233Z,30.35
2019-04-14T09:54:18.457Z,31.30
2019-04-14T09:56:51.040Z,30.52
2019-04-14T09:59:22.623Z,30.60
2019-04-14T10:02:02.056Z,30.57
2019-04-14T10:04:48.816Z,27.37
2019-04-14T10:07:24.774Z,29.65
2019-04-14T10:09:57.698Z,30.00
2019-04-14T10:12:31.993Z,29.77
2019-04-14T10:15:05.245Z,27.20
2019-04-14T10:17:36.915Z,29.50
2019-04-14T10:20:08.461Z,28.45
2019-04-14T10:22:39.777Z,28.07
2019-04-14T10:25:13.267Z,25.57
2019-04-14T10:27:47.311Z,26.00
2019-04-14T10:30:24.088Z,26.45
2019-04-14T10:33:27.472Z,26.45
2019-04-14T10:40:12.671Z,26.17
2019-04-14T10:46:05.889Z,23.67
2019-04-14T10:49:25.531Z,23.12
2019-04-14T10:53:17.432Z,22.32
2019-04-14T10:55:17.025Z,23.42
2019-04-14T10:58:03.841Z,22.60
2019-04-14T11:07:04.924Z,20.43
2019-04-14T11:09:32.141Z,20.85
2019-04-14T11:12:18.653Z,20.97
2019-04-14T11:18:02.352Z,21.97
2019-04-14T11:20:33.827Z,21.42
2019-04-14T11:23:10.980Z,20.97
2019-04-14T11:25:45.708Z,20.10
2019-04-14T11:28:17.777Z,19.60
2019-04-14T11:30:51.354Z,20.23
2019-04-14T11:33:27.421Z,19.65
2019-04-14T11:36:13.212Z,20.92
2019-04-14T11:41:50.875Z,19.32
2019-04-14T11:44:28.596Z,19.12
2019-04-14T11:47:00.319Z,19.12
2019-04-14T11:49:37.759Z,21.57
2019-04-14T11:52:40.619Z,19.80
2019-04-14T11:55:13.272Z,20.23
2019-04-14T11:57:48.586Z,20.90
2019-04-14T12:00:38.352Z,20.15
2019-04-14T12:03:11.744Z,20.02
2019-04-14T12:06:04.005Z,19.27
2019-04-14T12:08:56.291Z,18.60
2019-04-14T12:11:41.190Z,19.55
2019-04-14T12:14:21.718Z,19.37
2019-04-14T12:16:55.750Z,18.52
2019-04-14T12:19:29.411Z,18.27
2019-04-14T12:22:08.443Z,18.52
2019-04-14T12:24:36.051Z,18.57
2019-04-14T12:27:09.208Z,17.73
2019-04-14T12:29:44.334Z,17.05
2019-04-14T12:32:24.118Z,18.27
2019-04-14T12:34:57.122Z,18.15
2019-04-14T12:37:28.924Z,18.92
2019-04-14T12:40:05.132Z,17.98
2019-04-14T12:42:50.499Z,17.20
2019-04-14T12:45:40.157Z,16.82
2019-04-14T12:48:16.346Z,15.78
2019-04-14T12:50:56.289Z,16.77
2019-04-14T12:53:32.199Z,17.75
2019-04-14T12:56:09.751Z,15.45
2019-04-14T12:58:46.047Z,17.10
2019-04-14T13:01:26.383Z,16.00
2019-04-14T13:03:57.920Z,16.05
2019-04-14T13:06:32.444Z,15.83
2019-04-14T13:09:04.753Z,16.40
2019-04-14T13:11:37.870Z,15.40
2019-04-14T13:14:10.960Z,15.13
2019-04-14T13:16:43.835Z,15.05
2019-04-14T13:19:15.411Z,15.78
2019-04-14T13:21:49.176Z,15.70
2019-04-14T13:24:20.523Z,15.55
2019-04-14T13:26:52.610Z,15.98
2019-04-14T13:29:24.032Z,16.07
2019-04-14T13:32:06.019Z,16.45
2019-04-14T13:34:40.506Z,16.20
2019-04-14T13:37:14.922Z,16.30
2019-04-14T13:39:46.580Z,16.35
2019-04-14T13:42:17.997Z,15.68
2019-04-14T13:44:49.527Z,17.02
2019-04-14T13:47:20.957Z,16.00
2019-04-14T13:49:52.390Z,16.12
2019-04-14T13:52:23.820Z,15.83
2019-04-14T13:54:58.314Z,16.02
2019-04-14T13:57:31.609Z,15.55
2019-04-14T14:00:06.928Z,15.72
2019-04-14T14:02:42.827Z,15.70
2019-04-14T14:05:25.719Z,15.83
2019-04-14T14:07:57.470Z,15.83
2019-04-14T14:10:35.932Z,15.63
2019-04-14T14:13:09.608Z,15.70
2019-04-14T14:15:45.105Z,16.12
2019-04-14T14:18:34.375Z,15.90
2019-04-14T14:21:11.492Z,16.70
2019-04-14T14:23:47.140Z,15.58
2019-04-14T14:26:29.007Z,16.00
2019-04-14T14:29:00.648Z,15.83
2019-04-14T14:31:32.154Z,16.48
2019-04-14T14:34:10.586Z,15.10
2019-04-14T14:36:42.876Z,16.50
2019-04-14T14:39:19.081Z,15.05
2019-04-14T14:41:50.626Z,15.13
2019-04-14T14:44:26.604Z,16.40
2019-04-14T14:46:57.790Z,16.00
2019-04-14T14:49:46.947Z,16.70
2019-04-14T14:52:22.922Z,16.37
2019-04-14T14:54:55.925Z,15.18
2019-04-14T14:57:27.523Z,15.53
2019-04-14T14:59:59.019Z,14.53
2019-04-14T15:02:43.798Z,15.18
2019-04-14T15:05:15.122Z,15.60
2019-04-14T15:07:48.043Z,15.30
2019-04-14T15:10:19.328Z,16.02
2019-04-14T15:12:50.959Z,14.68
2019-04-14T15:15:28.751Z,14.18
2019-04-14T15:18:03.846Z,15.15
2019-04-14T15:20:35.257Z,15.45
2019-04-14T15:23:09.927Z,15.10
2019-04-14T15:25:48.767Z,14.13
2019-04-14T15:28:20.435Z,14.15
2019-04-14T15:30:51.851Z,15.05
2019-04-14T15:33:24.547Z,14.25
2019-04-14T15:35:57.461Z,14.68
2019-04-14T15:38:29.081Z,15.60
2019-04-14T15:41:01.537Z,13.70
2019-04-14T15:43:33.260Z,14.63
2019-04-14T15:46:04.698Z,14.63
2019-04-14T15:48:38.023Z,14.85
2019-04-14T15:51:10.577Z,14.00
2019-04-14T15:53:50.393Z,14.95
2019-04-14T15:56:23.647Z,13.58
2019-04-14T15:58:58.597Z,14.85
2019-04-14T16:01:45.349Z,14.35
2019-04-14T16:04:25.262Z,13.60
2019-04-14T16:07:04.742Z,14.30
2019-04-14T16:09:57.656Z,14.90
2019-04-14T16:12:30.863Z,15.00
2019-04-14T16:15:15.704Z,13.65
2019-04-14T16:18:05.039Z,13.25
2019-04-14T16:20:38.186Z,12.60
2019-04-14T16:23:10.287Z,12.60
2019-04-14T16:25:46.517Z,11.63
2019-04-14T16:28:19.727Z,10.70
2019-04-14T16:30:58.803Z,11.03
2019-04-14T16:33:32.008Z,11.35
2019-04-14T16:36:05.479Z,11.05
2019-04-14T16:38:38.605Z,10.23
2019-04-14T16:41:12.164Z,10.35
2019-04-14T16:43:43.773Z,11.08
2019-04-14T16:46:16.948Z,10.70
2019-04-14T16:48:52.440Z,10.05
2019-04-14T16:51:28.618Z,10.00
2019-04-14T16:54:03.157Z,9.53
2019-04-14T16:56:34.912Z,8.63
2019-04-14T16:59:07.775Z,8.93
2019-04-14T17:01:43.164Z,8.75
2019-04-14T17:15:20.868Z,8.55
2019-04-14T17:21:19.155Z,9.55
2019-04-14T17:30:26.605Z,9.28
2019-04-14T17:54:42.800Z,9.03
2019-04-14T17:57:37.008Z,9.63
2019-04-14T18:00:26.407Z,9.73
2019-04-14T18:03:21.251Z,9.28
2019-04-14T18:05:58.883Z,9.45
2019-04-14T18:08:48.607Z,8.83
2019-04-14T18:11:27.413Z,8.48
2019-04-14T18:14:08.903Z,9.43
2019-04-14T18:16:51.794Z,9.63
2019-04-14T18:19:41.062Z,9.15
2019-04-14T18:22:13.114Z,9.38
2019-04-14T18:24:49.179Z,9.35
2019-04-14T18:27:22.688Z,8.98
2019-04-14T18:30:03.356Z,10.05
2019-04-14T18:35:44.769Z,9.83
2019-04-14T18:46:23.118Z,9.95
2019-04-14T18:48:57.191Z,9.70
2019-04-14T18:51:35.705Z,9.53
2019-04-14T18:54:08.763Z,10.43
2019-04-14T18:56:40.177Z,12.55
2019-04-14T18:59:13.203Z,9.80
2019-04-14T19:01:48.425Z,9.18
2019-04-14T19:04:20.794Z,9.40
2019-04-14T19:06:52.224Z,9.50
2019-04-14T19:09:23.585Z,9.73
2019-04-14T19:11:56.670Z,10.10
2019-04-14T19:14:29.891Z,11.75
2019-04-14T19:17:17.796Z,9.40
2019-04-14T19:20:00.842Z,9.30
2019-04-14T19:22:23.860Z,10.45
2019-04-14T19:25:07.487Z,10.25
2019-04-14T19:27:29.520Z,10.70
2019-04-14T19:30:00.859Z,9.75
2019-04-14T19:32:33.771Z,9.95
2019-04-14T19:35:07.206Z,9.95
2019-04-14T19:37:38.711Z,10.03
2019-04-14T19:40:10.415Z,10.75
2019-04-14T19:42:41.809Z,10.30
2019-04-14T19:45:13.388Z,10.25
2019-04-14T19:47:44.692Z,9.65
2019-04-14T19:50:16.075Z,9.18
2019-04-14T19:52:47.470Z,9.50
2019-04-14T19:55:20.585Z,10.03
2019-04-14T19:57:51.949Z,10.20
2019-04-14T20:00:23.422Z,9.30
2019-04-14T20:02:54.777Z,10.23
2019-04-14T20:05:26.166Z,10.30
2019-04-14T20:07:57.673Z,9.30
2019-04-14T20:10:30.199Z,10.32
2019-04-14T20:13:01.664Z,9.60
2019-04-14T20:15:38.098Z,9.43
2019-04-14T20:18:14.530Z,9.97
2019-04-14T20:21:04.796Z,10.18
2019-04-14T20:23:44.837Z,9.48
2019-04-14T20:26:23.327Z,9.35
2019-04-14T20:29:11.058Z,9.80
2019-04-14T20:31:44.002Z,9.30
2019-04-14T20:34:15.830Z,9.73
2019-04-14T20:36:47.272Z,9.48
2019-04-14T20:39:19.148Z,9.10
2019-04-14T20:41:50.590Z,8.95
2019-04-14T20:44:22.436Z,9.40
2019-04-14T20:46:54.858Z,9.07
2019-04-14T20:49:26.151Z,8.73
2019-04-14T20:51:57.620Z,8.77
2019-04-14T20:54:28.983Z,8.13
2019-04-14T20:57:00.393Z,8.78
2019-04-14T20:59:32.493Z,8.37
2019-04-14T21:02:05.653Z,7.37
2019-04-14T21:04:54.679Z,7.72
2019-04-14T21:07:39.777Z,7.60
2019-04-14T21:10:15.611Z,8.38
2019-04-14T21:12:48.554Z,8.08
2019-04-14T21:15:24.348Z,8.28
2019-04-14T21:18:03.159Z,8.25
2019-04-14T21:20:45.944Z,8.70
2019-04-14T21:23:18.929Z,7.50
2019-04-14T21:26:00.265Z,8.35
2019-04-14T21:28:27.318Z,7.55
2019-04-14T21:31:02.966Z,7.35
2019-04-14T21:33:54.887Z,7.95
2019-04-14T21:36:31.627Z,7.83
2019-04-14T21:39:21.052Z,7.78
2019-04-14T21:41:52.917Z,8.05
2019-04-14T21:44:24.210Z,7.83
2019-04-14T21:46:55.562Z,7.62
2019-04-14T21:49:27.054Z,7.90
2019-04-14T21:52:05.875Z,7.78
2019-04-14T21:54:37.227Z,7.85
2019-04-14T21:57:26.436Z,7.75
2019-04-14T22:00:16.621Z,6.72
2019-04-14T22:03:03.044Z,7.22
2019-04-14T22:05:50.050Z,7.33
2019-04-14T22:08:38.169Z,7.85
2019-04-14T22:11:23.066Z,7.65
2019-04-14T22:13:54.425Z,7.67
2019-04-14T22:16:27.095Z,7.60
2019-04-14T22:18:58.801Z,7.83
2019-04-14T22:21:30.143Z,7.80
2019-04-14T22:24:02.329Z,7.92
2019-04-14T22:26:33.740Z,8.00
2019-04-14T22:29:05.243Z,7.60
2019-04-14T22:31:36.738Z,7.40
2019-04-14T22:34:07.969Z,8.05
2019-04-14T22:36:39.281Z,7.97
2019-04-14T22:39:12.220Z,7.50
2019-04-14T22:41:43.645Z,7.95
2019-04-14T22:44:14.860Z,7.78
2019-04-14T22:46:46.176Z,7.10
2019-04-14T22:49:17.401Z,7.65
2019-04-14T22:51:48.807Z,7.33
2019-04-14T22:54:20.093Z,7.70
2019-04-14T22:56:51.646Z,7.07
2019-04-14T22:59:22.895Z,7.62
2019-04-14T23:01:59.730Z,7.37
2019-04-14T23:04:41.196Z,7.00
2019-04-14T23:07:18.035Z,7.03
2019-04-14T23:10:04.007Z,7.70
2019-04-14T23:12:39.968Z,7.20
2019-04-14T23:15:16.628Z,7.80
2019-04-14T23:18:01.933Z,9.10
2019-04-14T23:20:50.731Z,8.90
2019-04-14T23:23:32.800Z,9.93
2019-04-14T23:26:04.024Z,9.00
2019-04-14T23:28:35.329Z,9.53
2019-04-14T23:31:06.709Z,8.97
2019-04-14T23:33:38.160Z,9.20
2019-04-14T23:36:09.581Z,9.43
2019-04-14T23:38:40.965Z,9.90
2019-04-14T23:41:12.197Z,9.00
2019-04-14T23:43:43.627Z,8.77
2019-04-14T23:46:14.999Z,9.63
2019-04-14T23:48:46.544Z,9.40
2019-04-14T23:51:17.869Z,8.60
2019-04-14T23:53:49.155Z,8.77
2019-04-14T23:56:20.451Z,9.27
2019-04-14T23:58:51.870Z,9.37
